Time;durP1;ratioP1;P1;durP2;ratioP2;P2;SDS_P1;SDS_P2;PMS_P1;PMS_P2;Temp;Humidity;BMP_temperature;BMP_pressure;BME280_temperature;BME280_humidity;BME280_pressure;Samples;Min_cycle;Max_cycle;Signal;HPM_P1;HPM_P2
2022/08/19 00:01:29;;;;;;;4.50;4.30;;;;;;;22.49;59.77;64330.91;4895390;29;20202;-77
2022/08/19 00:03:57;;;;;;;5.13;4.65;;;;;;;22.48;59.25;64329.88;4875414;29;20228;-79
2022/08/19 00:06:24;;;;;;;4.43;4.13;;;;;;;22.59;58.61;64340.88;4876558;29;20205;-77
2022/08/19 00:08:52;;;;;;;4.65;4.25;;;;;;;22.53;57.91;64335.09;4892119;29;20232;-79
2022/08/19 00:11:20;;;;;;;4.95;4.57;;;;;;;22.63;58.07;64348.16;4892195;29;20262;-78
2022/08/19 00:13:50;;;;;;;4.07;3.88;;;;;;;22.64;57.72;64349.22;4892989;29;20246;-78
2022/08/19 00:16:20;;;;;;;4.07;3.85;;;;;;;22.69;57.86;64351.34;4893093;29;20273;-77
2022/08/19 00:18:55;;;;;;;5.25;4.75;;;;;;;22.55;58.34;64339.28;4892268;29;20230;-80
2022/08/19 00:21:23;;;;;;;4.35;4.15;;;;;;;22.65;59.34;64347.13;4894554;29;20571;-77
2022/08/19 00:23:51;;;;;;;4.47;4.07;;;;;;;22.60;59.57;64347.09;4897483;29;20225;-78
2022/08/19 00:26:19;;;;;;;4.63;4.30;;;;;;;22.46;60.20;64324.66;4899433;29;20217;-78
2022/08/19 00:28:49;;;;;;;4.70;4.50;;;;;;;22.60;59.12;64347.63;4897202;29;20231;-78
2022/08/19 00:31:20;;;;;;;5.25;4.95;;;;;;;22.59;58.29;64338.78;4879667;29;20199;-77
2022/08/19 00:33:50;;;;;;;6.93;5.05;;;;;;;22.61;58.43;64340.88;4875492;29;20239;-77
2022/08/19 00:36:18;;;;;;;4.78;4.38;;;;;;;22.54;58.28;64340.81;4886515;29;20203;-78
2022/08/19 00:38:47;;;;;;;4.82;4.38;;;;;;;22.45;58.21;64326.22;4893276;29;20230;-78
2022/08/19 00:41:16;;;;;;;5.47;4.97;;;;;;;22.57;58.69;64341.38;4893262;29;20199;-77
2022/08/19 00:43:44;;;;;;;4.93;4.50;;;;;;;22.56;59.46;64340.31;4893052;29;20222;-78
2022/08/19 00:46:12;;;;;;;4.13;3.72;;;;;;;22.49;60.03;64332.97;4891500;29;20254;-79
2022/08/19 00:48:39;;;;;;;5.10;4.70;;;;;;;22.49;59.72;64335.56;4895238;29;20587;-77
2022/08/19 00:51:09;;;;;;;4.80;4.50;;;;;;;22.50;59.94;64331.44;4895778;29;20199;-78
2022/08/19 00:53:36;;;;;;;4.32;3.92;;;;;;;22.46;59.54;64325.19;4894788;29;20264;-80
2022/08/19 00:56:06;;;;;;;5.30;4.80;;;;;;;22.44;59.67;64325.69;4874642;29;20232;-78
2022/08/19 00:58:35;;;;;;;4.05;3.85;;;;;;;22.47;59.49;64336.06;4874459;29;20404;-77
2022/08/19 01:01:03;;;;;;;5.03;4.72;;;;;;;22.39;60.00;64320.47;4873959;29;20235;-77
2022/08/19 01:03:30;;;;;;;5.07;4.47;;;;;;;22.33;60.15;64314.19;4884355;29;20245;-77
2022/08/19 01:05:57;;;;;;;5.47;4.95;;;;;;;22.32;59.61;64313.16;4892124;29;20243;-77
2022/08/19 01:08:26;;;;;;;5.18;4.75;;;;;;;22.29;60.22;64304.28;4875744;29;20231;-80
2022/08/19 01:10:56;;;;;;;4.60;4.30;;;;;;;22.29;60.99;64304.28;4873879;29;20255;-77
2022/08/19 01:13:27;;;;;;;4.50;4.18;;;;;;;22.21;60.58;64304.22;4890642;29;20245;-77
2022/08/19 01:15:59;;;;;;;4.93;4.63;;;;;;;22.19;60.40;64293.84;4892270;29;20203;-77
2022/08/19 01:18:28;;;;;;;4.05;3.85;;;;;;;22.19;60.41;64301.63;4892417;29;20338;-78
2022/08/19 01:20:57;;;;;;;5.25;4.40;;;;;;;22.25;60.89;64300.63;4890621;29;20207;-79
2022/08/19 01:23:42;;;;;;;6.20;4.70;;;;;;;22.22;61.06;64302.16;4891330;29;20241;-77
2022/08/19 01:26:10;;;;;;;5.00;4.70;;;;;;;22.13;61.95;64292.75;4891332;29;20209;-78
2022/08/19 01:28:38;;;;;;;4.72;4.35;;;;;;;22.07;61.73;64286.50;4892174;29;20230;-78
2022/08/19 01:31:06;;;;;;;4.72;4.40;;;;;;;22.03;61.48;64282.84;4888488;29;20207;-78
2022/08/19 01:33:33;;;;;;;6.05;4.63;;;;;;;22.02;62.14;64279.19;4874141;29;20219;-78
2022/08/19 01:36:07;;;;;;;5.35;5.05;;;;;;;21.92;62.70;64268.22;4882806;29;20202;-78
2022/08/19 01:38:37;;;;;;;4.53;4.22;;;;;;;21.96;63.20;64277.59;4874384;29;20231;-77
2022/08/19 01:41:05;;;;;;;5.63;5.22;;;;;;;21.88;62.72;64264.56;4891212;29;20484;-77
2022/08/19 01:43:33;;;;;;;4.82;4.50;;;;;;;21.85;63.22;64260.91;4890430;29;20285;-77
2022/08/19 01:46:00;;;;;;;6.57;5.35;;;;;;;21.81;63.25;64259.84;4891266;29;20199;-77
2022/08/19 01:48:29;;;;;;;5.22;4.47;;;;;;;21.79;64.20;64257.75;4890450;29;20218;-77
2022/08/19 01:50:56;;;;;;;4.65;4.35;;;;;;;21.75;63.74;64258.75;4890479;29;20234;-76
2022/08/19 01:53:23;;;;;;;4.47;4.18;;;;;;;21.70;65.16;64253.50;4890440;29;20301;-77
2022/08/19 01:55:52;;;;;;;5.95;5.47;;;;;;;21.65;65.10;64243.09;4878601;29;20415;-79
2022/08/19 01:58:21;;;;;;;5.03;4.70;;;;;;;21.60;65.86;64238.41;4886586;29;20256;-77
2022/08/19 02:00:49;;;;;;;4.80;4.50;;;;;;;21.60;65.97;64240.47;4891675;29;20207;-78
2022/08/19 02:03:17;;;;;;;5.45;4.97;;;;;;;21.55;66.81;64235.25;4891615;29;20210;-76
2022/08/19 02:05:45;;;;;;;5.07;4.72;;;;;;;21.39;66.95;64208.16;4890155;29;20324;-78
2022/08/19 02:08:13;;;;;;;5.45;5.05;;;;;;;21.40;66.21;64216.97;4873522;29;20281;-77
2022/08/19 02:10:42;;;;;;;5.28;4.78;;;;;;;21.32;65.92;64206.03;4876076;29;20220;-76
2022/08/19 02:13:11;;;;;;;4.90;4.68;;;;;;;21.40;65.53;64216.97;4890483;29;20334;-77
2022/08/19 02:15:38;;;;;;;5.40;5.10;;;;;;;21.36;67.56;64215.94;4889561;29;20234;-77
2022/08/19 02:18:07;;;;;;;4.63;4.32;;;;;;;21.33;67.38;64212.28;4890198;29;20203;-77
2022/08/19 02:20:35;;;;;;;4.90;4.60;;;;;;;21.27;66.93;64203.94;4890949;29;20203;-78
2022/08/19 02:23:02;;;;;;;4.47;4.20;;;;;;;21.26;67.08;64204.97;4890452;29;20553;-77
2022/08/19 02:25:29;;;;;;;5.00;4.05;;;;;;;21.26;67.28;64202.38;4889782;29;20230;-77
2022/08/19 02:27:56;;;;;;;5.28;4.78;;;;;;;21.27;66.61;64203.94;4889748;29;20230;-76
2022/08/19 02:30:25;;;;;;;5.25;4.85;;;;;;;21.30;67.17;64214.31;4890645;29;20392;-77
2022/08/19 02:32:53;;;;;;;5.10;4.70;;;;;;;21.24;67.64;64203.41;4889639;29;20217;-77
2022/08/19 02:35:21;;;;;;;4.80;4.50;;;;;;;21.27;67.39;64209.13;4887334;29;20238;-78
2022/08/19 02:40:34;;;;;;;5.30;4.80;;;;;;;21.31;66.92;64210.19;4891190;29;20259;-77
2022/08/19 02:43:03;;;;;;;5.15;4.60;;;;;;;21.25;67.36;64203.91;4890171;29;20220;-79
2022/08/19 02:45:35;;;;;;;4.78;4.47;;;;;;;21.19;68.49;64189.88;4880679;29;20211;-79
2022/08/19 02:48:02;;;;;;;5.35;4.85;;;;;;;21.17;68.34;64198.16;4874054;29;20195;-78
2022/08/19 02:50:29;;;;;;;5.10;4.80;;;;;;;21.13;68.05;64189.31;4873543;29;20203;-78
2022/08/19 02:52:57;;;;;;;5.10;4.70;;;;;;;21.12;69.80;64187.75;4888314;29;20210;-78
2022/08/19 02:55:24;;;;;;;5.03;4.63;;;;;;;21.02;70.31;64183.00;4884496;29;20238;-78
2022/08/19 02:57:51;;;;;;;8.45;4.70;;;;;;;20.96;69.64;64171.53;4875469;29;20204;-77
2022/08/19 03:00:19;;;;;;;4.70;4.40;;;;;;;20.90;70.23;64165.25;4879077;29;20253;-77
2022/08/19 03:02:48;;;;;;;4.60;4.30;;;;;;;20.88;70.24;64163.19;4883612;29;20516;-77
2022/08/19 03:05:15;;;;;;;5.85;5.45;;;;;;;20.83;70.09;64157.44;4876947;29;20219;-77
2022/08/19 03:07:43;;;;;;;5.78;5.25;;;;;;;20.81;70.48;64160.53;4874234;29;20230;-77
2022/08/19 03:10:10;;;;;;;5.50;4.55;;;;;;;20.77;70.73;64154.28;4879987;29;20227;-77
2022/08/19 03:12:38;;;;;;;5.63;5.22;;;;;;;20.71;70.88;64145.44;4890223;29;20214;-78
2022/08/19 03:15:08;;;;;;;5.15;4.75;;;;;;;20.63;72.16;64134.50;4890876;29;20238;-79
2022/08/19 03:17:35;;;;;;;4.85;4.55;;;;;;;20.56;72.67;64130.31;4890679;29;20203;-78
2022/08/19 03:20:04;;;;;;;5.82;5.43;;;;;;;20.48;73.10;64121.94;4889596;29;20258;-78
2022/08/19 03:22:31;;;;;;;5.40;5.00;;;;;;;20.54;73.06;64130.81;4890487;29;20434;-77
2022/08/19 03:24:59;;;;;;;5.93;5.32;;;;;;;20.49;73.74;64119.88;4890012;29;20418;-78
2022/08/19 03:27:26;;;;;;;5.82;5.20;;;;;;;20.49;72.79;64120.41;4888836;29;20202;-78
2022/08/19 03:29:53;;;;;;;5.38;4.85;;;;;;;20.49;73.24;64117.81;4890163;29;20233;-78
2022/08/19 03:32:21;;;;;;;5.57;5.18;;;;;;;20.41;74.11;64112.06;4890833;29;20237;-77
2022/08/19 03:34:49;;;;;;;4.95;4.55;;;;;;;20.45;72.76;64118.28;4892999;29;20277;-77
2022/08/19 03:37:17;;;;;;;5.75;4.90;;;;;;;20.34;73.52;64107.34;4889972;29;20266;-79
2022/08/19 03:39:44;;;;;;;5.55;5.05;;;;;;;20.33;74.61;64108.88;4892424;29;20423;-77
2022/08/19 03:42:12;;;;;;;4.82;4.53;;;;;;;20.35;74.96;64110.44;4894438;29;20496;-78
2022/08/19 03:44:42;;;;;;;5.40;5.00;;;;;;;20.27;74.24;64094.88;4892774;29;20246;-78
2022/08/19 03:47:09;;;;;;;5.75;4.45;;;;;;;20.30;74.83;64103.16;4890972;29;20386;-78
2022/08/19 03:49:36;;;;;;;5.30;4.90;;;;;;;20.28;74.46;64101.06;4890077;29;20230;-78
2022/08/19 03:52:06;;;;;;;5.25;4.82;;;;;;;20.33;74.33;64103.69;4889753;29;20231;-77
2022/08/19 03:54:37;;;;;;;5.20;4.57;;;;;;;20.39;74.41;64109.44;4887041;29;20254;-77
2022/08/19 03:57:05;;;;;;;4.85;4.45;;;;;;;20.45;73.99;64116.22;4886565;29;20223;-77
2022/08/19 03:59:35;;;;;;;4.43;4.20;;;;;;;20.52;74.64;64120.41;4890560;29;20492;-78
2022/08/19 04:02:08;;;;;;;5.53;4.18;;;;;;;20.55;73.64;64129.25;4890859;29;20203;-80
2022/08/19 04:04:35;;;;;;;5.32;4.38;;;;;;;20.58;74.21;64129.81;4889523;29;20223;-77
2022/08/19 04:07:03;;;;;;;5.10;4.63;;;;;;;20.62;74.67;64141.22;4883788;29;20230;-78
2022/08/19 04:09:30;;;;;;;7.28;5.13;;;;;;;20.69;75.09;64143.88;4874664;29;20567;-78
2022/08/19 04:11:58;;;;;;;6.70;6.18;;;;;;;20.75;74.57;64152.19;4876128;29;20210;-78
2022/08/19 04:14:29;;;;;;;5.65;5.15;;;;;;;20.84;73.63;64156.41;4892581;29;20305;-77
2022/08/19 04:16:57;;;;;;;6.28;5.78;;;;;;;20.92;73.70;64166.84;4899651;29;20266;-78
2022/08/19 04:19:24;;;;;;;5.97;5.50;;;;;;;21.06;72.30;64182.00;4897191;29;20228;-78
2022/08/19 04:21:54;;;;;;;4.97;4.68;;;;;;;21.10;72.73;64180.47;4894537;29;20199;-79
2022/08/19 04:24:22;;;;;;;7.10;5.57;;;;;;;21.20;72.34;64196.63;4891751;29;20237;-78
2022/08/19 04:26:50;;;;;;;9.27;5.95;;;;;;;21.28;72.79;64204.97;4886320;29;20212;-77
2022/08/19 04:29:22;;;;;;;7.78;6.30;;;;;;;21.37;72.49;64214.38;4878688;29;20231;-78
2022/08/19 04:31:50;;;;;;;9.88;6.20;;;;;;;21.48;71.44;64225.88;4887405;29;20239;-77
2022/08/19 04:34:21;;;;;;;7.65;5.78;;;;;;;21.59;71.40;64239.94;4901092;29;20222;-78
2022/08/19 04:36:50;;;;;;;7.32;6.47;;;;;;;21.68;71.42;64248.81;4899998;29;20191;-78
2022/08/19 04:39:20;;;;;;;7.65;6.88;;;;;;;21.81;69.67;64259.31;4897429;29;20528;-77
2022/08/19 04:44:34;;;;;;;7.47;5.97;;;;;;;22.03;70.65;64277.13;4881502;29;20592;-78
2022/08/19 04:47:05;;;;;;;5.30;4.90;;;;;;;22.13;71.09;64293.28;4874551;29;20200;-77
2022/08/19 04:49:32;;;;;;;5.95;5.45;;;;;;;22.23;72.64;64306.31;4891988;29;20227;-76
2022/08/19 04:51:59;;;;;;;7.03;6.47;;;;;;;22.33;70.51;64313.66;4889294;29;20523;-77
2022/08/19 04:54:26;;;;;;;9.88;5.88;;;;;;;22.42;70.18;64320.47;4889710;29;20274;-77
2022/08/19 04:56:54;;;;;;;6.03;5.57;;;;;;;22.53;72.08;64335.09;4873452;29;20204;-77
2022/08/19 04:59:22;;;;;;;5.30;4.90;;;;;;;22.61;71.42;64348.69;4880084;29;20230;-77
2022/08/19 05:01:51;;;;;;;7.75;6.60;;;;;;;22.67;70.02;64351.84;4879086;29;20251;-77
2022/08/19 05:04:20;;;;;;;6.07;5.40;;;;;;;22.68;64.62;64347.69;4874945;29;20233;-77
2022/08/19 05:06:48;;;;;;;6.80;6.20;;;;;;;22.48;65.93;64326.75;4884731;29;20433;-77
2022/08/19 05:09:16;;;;;;;6.30;5.80;;;;;;;22.33;63.98;64316.28;4893246;29;20582;-77
2022/08/19 05:11:44;;;;;;;6.47;5.85;;;;;;;22.45;63.88;64326.22;4894741;29;20231;-77
2022/08/19 05:14:13;;;;;;;6.82;5.65;;;;;;;22.44;62.90;64325.16;4896052;29;20227;-77
2022/08/19 05:16:41;;;;;;;5.55;5.18;;;;;;;22.46;63.70;64325.19;4894586;29;20238;-77
2022/08/19 05:24:39;;;;;;;5.35;4.95;;;;;;;22.89;60.65;64369.63;4875061;29;20225;-79
2022/08/19 05:27:06;;;;;;;5.43;5.03;;;;;;;23.07;60.00;64390.53;4886415;29;20229;-78
2022/08/19 05:29:35;;;;;;;5.35;4.97;;;;;;;23.27;59.68;64411.47;4894996;29;20279;-78
2022/08/19 05:32:05;;;;;;;5.68;5.15;;;;;;;23.50;60.84;64436.06;4894859;29;20232;-78
2022/08/19 05:34:35;;;;;;;7.88;5.50;;;;;;;23.63;60.70;64452.28;4890320;29;20231;-78
2022/08/19 05:37:04;;;;;;;5.60;5.20;;;;;;;23.68;59.20;64454.91;4890979;29;20202;-78
2022/08/19 05:39:34;;;;;;;8.40;5.80;;;;;;;23.51;60.18;64437.13;4893665;29;20247;-80
2022/08/19 05:42:03;;;;;;;6.28;5.72;;;;;;;23.38;60.00;64423.00;4893624;29;20203;-77
2022/08/19 05:44:33;;;;;;;13.30;6.43;;;;;;;23.42;59.72;64424.56;4890908;29;20223;-77
2022/08/19 05:47:01;;;;;;;9.43;6.43;;;;;;;23.39;60.26;64424.03;4893445;29;20499;-78
2022/08/19 05:49:30;;;;;;;14.50;6.57;;;;;;;23.43;61.16;64428.22;4894080;29;20563;-78
2022/08/19 05:51:59;;;;;;;11.13;6.28;;;;;;;23.62;60.71;64442.91;4891853;29;20215;-78
2022/08/19 05:54:26;;;;;;;6.05;5.43;;;;;;;23.68;61.38;64452.28;4888590;29;20227;-79
2022/08/19 05:56:55;;;;;;;10.38;5.70;;;;;;;23.76;61.10;64462.75;4891276;29;20238;-77
2022/08/19 05:59:23;;;;;;;11.13;6.70;;;;;;;23.93;60.38;64478.47;4891379;29;20563;-79
2022/08/19 06:01:54;;;;;;;16.75;7.32;;;;;;;24.02;60.17;64486.84;4891379;29;20202;-79
2022/08/19 06:04:22;;;;;;;7.65;6.90;;;;;;;24.04;60.51;64492.06;4890482;29;20226;-78
2022/08/19 06:37:09;;;;;;;6.78;6.07;;;;;;;25.08;58.60;64603.06;5101796;23;20284;-78
2022/08/19 06:39:39;;;;;;;5.95;5.45;;;;;;;25.24;58.12;64611.50;4888815;29;20227;-79
2022/08/19 06:42:09;;;;;;;9.25;5.72;;;;;;;25.30;56.25;64620.38;4890300;29;20273;-78
2022/08/19 06:44:38;;;;;;;7.13;5.47;;;;;;;25.46;56.88;64640.28;4890311;29;20199;-77
2022/08/19 06:47:08;;;;;;;9.55;5.72;;;;;;;25.61;56.23;64655.50;4888993;29;20226;-77
2022/08/19 06:49:37;;;;;;;9.35;5.97;;;;;;;25.57;57.03;64654.44;4880495;29;20222;-79
2022/08/19 06:52:05;;;;;;;14.80;6.15;;;;;;;25.56;56.44;64650.78;4885970;29;20250;-79
2022/08/19 06:54:33;;;;;;;6.95;6.15;;;;;;;25.62;57.44;64659.69;4883446;29;20210;-79
2022/08/19 06:57:02;;;;;;;7.25;6.25;;;;;;;25.72;55.07;64664.41;4884092;29;20246;-77
2022/08/19 06:59:32;;;;;;;12.43;6.63;;;;;;;25.59;54.89;64648.69;4878949;29;20282;-77
2022/08/19 07:02:01;;;;;;;9.48;5.82;;;;;;;25.50;57.39;64641.34;4891839;29;20227;-79
2022/08/19 07:04:31;;;;;;;8.32;6.40;;;;;;;25.59;55.80;64653.41;4887296;29;20238;-78
2022/08/19 07:07:00;;;;;;;7.03;6.05;;;;;;;25.72;56.15;64667.00;4888058;29;20235;-77
2022/08/19 07:09:27;;;;;;;6.03;5.53;;;;;;;25.89;54.95;64687.44;4890314;29;20213;-79
2022/08/19 07:11:57;;;;;;;7.50;5.72;;;;;;;26.04;54.08;64703.19;4883733;29;20268;-78
2022/08/19 07:14:27;;;;;;;8.00;5.50;;;;;;;26.10;52.71;64707.41;4888128;29;20245;-77
2022/08/19 07:16:56;;;;;;;6.78;5.60;;;;;;;26.17;52.55;64714.22;4894152;29;20238;-77
2022/08/19 07:19:27;;;;;;;7.82;6.15;;;;;;;26.15;52.81;64715.25;4888124;29;20210;-74
2022/08/19 07:21:55;;;;;;;8.02;5.82;;;;;;;26.22;53.66;64719.44;4887571;29;20308;-77
2022/08/19 07:24:24;;;;;;;8.23;5.18;;;;;;;26.33;52.45;64728.38;4887109;29;20287;-77
2022/08/19 07:26:53;;;;;;;5.85;5.35;;;;;;;26.33;53.61;64733.59;4882678;29;20225;-77
2022/08/19 07:29:24;;;;;;;6.20;5.70;;;;;;;26.62;53.40;64758.78;4885660;29;20210;-77
2022/08/19 07:31:52;;;;;;;6.65;6.05;;;;;;;26.84;52.30;64781.88;4886283;29;20265;-76
2022/08/19 07:34:20;;;;;;;6.63;6.00;;;;;;;26.96;52.02;64796.53;4887333;29;20199;-77
2022/08/19 07:36:47;;;;;;;6.38;5.63;;;;;;;27.05;51.42;64808.59;4883890;29;20314;-78
2022/08/19 07:39:19;;;;;;;6.10;5.60;;;;;;;27.23;50.38;64825.38;4888497;29;20270;-77
2022/08/19 07:41:48;;;;;;;6.10;5.60;;;;;;;27.44;50.24;64844.31;4885483;29;20258;-77
2022/08/19 07:44:16;;;;;;;5.60;5.20;;;;;;;27.59;49.55;64860.06;4888031;29;20199;-76
2022/08/19 07:46:48;;;;;;;6.45;5.68;;;;;;;27.67;49.19;64870.53;4893030;29;20218;-77
2022/08/19 07:49:19;;;;;;;7.85;5.72;;;;;;;27.75;49.15;64878.94;4892318;29;20223;-78
2022/08/19 07:51:47;;;;;;;5.97;5.47;;;;;;;27.92;49.09;64894.69;4895272;29;20251;-77
2022/08/19 07:54:14;;;;;;;10.18;6.18;;;;;;;27.82;49.82;64886.28;4892494;29;20438;-77
2022/08/19 07:56:41;;;;;;;8.65;5.63;;;;;;;27.83;48.76;64890.47;4884856;29;20427;-78
2022/08/19 07:59:09;;;;;;;5.28;4.97;;;;;;;27.94;49.21;64899.41;4887247;29;20234;-77
2022/08/19 08:01:36;;;;;;;6.15;5.07;;;;;;;27.94;49.03;64898.91;4887374;29;20252;-78
2022/08/19 08:09:37;;;;;;;7.13;6.07;;;;;;;28.18;47.57;64924.09;4888513;29;20231;-76
2022/08/19 08:12:07;;;;;;;10.98;5.38;;;;;;;28.35;47.29;64944.56;4885670;29;20291;-77
2022/08/19 08:14:38;;;;;;;9.20;6.43;;;;;;;28.49;46.65;64956.13;4891311;29;20525;-75
2022/08/19 08:33:04;;;;;;;5.20;4.80;;;;;;;28.76;43.15;64987.13;4916851;23;20513;-78
2022/08/19 08:35:36;;;;;;;7.22;4.90;;;;;;;29.05;41.79;65009.69;4911294;29;20211;-78
2022/08/19 08:38:06;;;;;;;8.20;4.55;;;;;;;29.21;40.96;65037.03;4910600;29;20206;-77
2022/08/19 08:40:50;;;;;;;5.88;4.60;;;;;;;28.73;40.46;64984.50;4913198;29;20206;-77
2022/08/19 08:43:25;;;;;;;5.00;4.60;;;;;;;28.81;40.39;64992.38;4911567;29;20244;-77
2022/08/19 08:46:05;;;;;;;6.25;4.63;;;;;;;28.94;39.97;65001.28;4908449;29;20238;-77
2022/08/19 08:48:49;;;;;;;5.53;3.97;;;;;;;29.19;40.15;65024.44;4894326;29;20203;-78
2022/08/19 08:51:27;;;;;;;7.53;5.03;;;;;;;29.26;40.49;65042.28;4895013;29;20234;-78
2022/08/19 08:54:07;;;;;;;5.00;4.55;;;;;;;29.48;40.33;65060.69;4895661;29;20213;-77
2022/08/19 08:59:23;;;;;;;5.22;4.80;;;;;;;29.62;39.95;65079.59;4913732;23;20452;-79
2022/08/19 09:02:38;;;;;;;4.72;4.32;;;;;;;29.69;39.47;65084.88;4893607;29;20223;-77
2022/08/19 09:05:15;;;;;;;8.05;4.28;;;;;;;29.91;39.21;65108.00;4887797;29;20252;-77
2022/08/19 09:07:55;;;;;;;4.22;4.03;;;;;;;30.18;36.82;65135.84;4891338;29;20234;-76
2022/08/19 09:23:18;;;;;;;6.18;4.10;;;;;;;30.86;35.02;65204.78;4892956;29;20224;-78
2022/08/19 09:25:45;;;;;;;4.47;4.13;;;;;;;31.00;36.13;65219.50;4897233;29;20244;-79
2022/08/19 09:28:12;;;;;;;4.72;4.22;;;;;;;31.18;33.39;65243.19;4912943;29;20226;-77
2022/08/19 09:30:41;;;;;;;3.95;3.75;;;;;;;31.02;33.85;65223.72;4916131;29;20253;-79
2022/08/19 09:33:09;;;;;;;4.75;4.40;;;;;;;31.11;33.76;65233.72;4921239;29;20198;-77
2022/08/19 09:35:36;;;;;;;4.43;3.67;;;;;;;31.35;34.92;65259.00;4911579;29;20220;-77
2022/08/19 09:40:34;;;;;;;3.72;3.53;;;;;;;31.66;31.87;65286.34;5366392;23;20250;-79
2022/08/19 09:43:02;;;;;;;4.75;3.65;;;;;;;31.81;31.67;65308.97;4892575;29;20270;-77
2022/08/19 09:45:29;;;;;;;3.80;3.60;;;;;;;31.69;32.32;65288.97;4894035;29;20597;-77
2022/08/19 09:47:57;;;;;;;3.58;3.35;;;;;;;31.50;31.53;65274.78;4898221;29;20203;-78
2022/08/19 09:50:25;;;;;;;5.07;3.70;;;;;;;31.33;32.26;65251.63;4894770;29;20203;-78
2022/08/19 09:52:56;;;;;;;4.05;3.70;;;;;;;31.35;32.07;65253.19;4899325;29;20207;-76
2022/08/19 09:55:23;;;;;;;4.18;3.38;;;;;;;31.10;30.97;65235.28;4894558;29;20219;-76
2022/08/19 09:57:54;;;;;;;3.97;3.72;;;;;;;31.01;31.77;65225.81;4899242;29;20234;-78
2022/08/19 10:00:21;;;;;;;3.35;3.15;;;;;;;30.96;32.39;65220.03;4892131;29;20213;-77
2022/08/19 10:02:48;;;;;;;6.60;3.67;;;;;;;31.19;32.38;65242.13;4892338;29;20547;-78
2022/08/19 10:08:00;;;;;;;4.78;3.78;;;;;;;31.42;30.49;65268.47;4885715;29;20275;-78
2022/08/19 10:10:27;;;;;;;3.03;2.83;;;;;;;31.47;28.75;65273.72;4887135;29;20195;-77
2022/08/19 10:12:55;;;;;;;4.40;4.00;;;;;;;31.48;29.14;65270.03;4893589;29;20499;-79
2022/08/19 10:15:22;;;;;;;4.68;4.32;;;;;;;31.58;30.38;65277.91;4893149;29;20290;-78
2022/08/19 10:17:50;;;;;;;4.43;4.00;;;;;;;31.52;30.76;65273.72;4886210;29;20254;-78
2022/08/19 10:20:17;;;;;;;4.82;4.38;;;;;;;31.77;30.07;65299.50;4883644;29;20554;-78
2022/08/19 10:22:44;;;;;;;5.07;4.38;;;;;;;31.55;29.96;65274.75;4890873;29;20270;-78
2022/08/19 10:43:11;;;;;;;4.70;4.20;;;;;;;32.28;29.96;65353.72;4620357;23;20237;-76
2022/08/19 10:45:42;;;;;;;4.55;4.15;;;;;;;32.10;29.47;65336.91;4914421;29;20229;-77
2022/08/19 10:48:19;;;;;;;5.45;4.60;;;;;;;31.78;29.75;65300.53;5000835;23;20268;-78
2022/08/19 10:59:47;;;;;;;5.57;4.18;;;;;;;31.94;28.86;65323.22;4871813;29;20271;-79
2022/08/19 11:02:21;;;;;;;4.38;4.03;;;;;;;32.19;29.24;65344.25;4871719;29;20231;-76
2022/08/19 11:07:33;;;;;;;7.10;4.10;;;;;;;32.57;29.42;65384.28;4892894;23;20238;-78
2022/08/19 11:10:08;;;;;;;4.50;4.20;;;;;;;32.22;28.64;65346.91;4888674;29;20203;-77
2022/08/19 11:12:48;;;;;;;6.15;4.43;;;;;;;32.47;29.88;65375.88;4874785;29;20544;-77
2022/08/19 11:15:28;;;;;;;5.22;4.82;;;;;;;32.27;30.33;65352.16;4874468;29;20221;-77
2022/08/19 11:18:05;;;;;;;4.18;3.97;;;;;;;32.21;29.29;65345.81;4891175;29;20216;-77
2022/08/19 11:20:37;;;;;;;5.80;3.97;;;;;;;31.94;29.38;65322.69;4892640;29;20273;-77
2022/08/19 11:23:15;;;;;;;4.80;4.50;;;;;;;31.94;29.76;65317.94;4959134;23;20253;-77
2022/08/19 11:25:42;;;;;;;4.95;4.13;;;;;;;31.79;29.53;65301.59;4867845;29;20269;-76
2022/08/19 11:39:17;;;;;;;4.78;4.47;;;;;;;32.68;29.14;65395.34;4953794;23;20230;-78
2022/08/19 11:41:44;;;;;;;5.00;4.60;;;;;;;32.83;29.42;65411.13;4884115;29;20223;-77
2022/08/19 11:44:13;;;;;;;5.85;4.28;;;;;;;32.80;28.28;65413.25;4877808;29;20211;-78
2022/08/19 11:46:45;;;;;;;4.35;3.95;;;;;;;32.62;28.91;65389.56;4877090;29;20233;-79
2022/08/19 11:49:13;;;;;;;4.90;4.25;;;;;;;32.70;29.76;65395.31;4875598;29;20275;-77
2022/08/19 11:51:41;;;;;;;4.78;4.45;;;;;;;32.99;28.74;65427.47;4877736;29;20223;-77
2022/08/19 11:54:09;;;;;;;5.25;4.32;;;;;;;33.18;28.45;65447.50;4873146;29;20514;-76
2022/08/19 11:56:38;;;;;;;4.68;4.20;;;;;;;33.39;28.44;65467.00;4876244;29;20233;-79
2022/08/19 11:59:05;;;;;;;4.05;3.85;;;;;;;33.27;28.04;65457.53;4877332;29;20203;-78
2022/08/19 12:01:32;;;;;;;5.32;4.30;;;;;;;33.15;28.10;65442.25;4893072;29;20297;-76
2022/08/19 12:04:00;;;;;;;5.05;4.20;;;;;;;33.35;28.74;65470.69;4880369;29;20242;-76
2022/08/19 12:06:29;;;;;;;5.43;4.45;;;;;;;33.52;28.11;65489.16;4877078;29;20278;-76
2022/08/19 12:08:57;;;;;;;6.80;4.32;;;;;;;33.43;28.21;65477.03;4875176;29;20203;-77
2022/08/19 12:11:24;;;;;;;4.53;4.22;;;;;;;33.38;28.23;65471.75;4873528;29;20220;-77
2022/08/19 12:13:54;;;;;;;4.72;4.32;;;;;;;33.55;28.48;65481.22;4876617;29;20203;-76
2022/08/19 12:16:23;;;;;;;5.13;4.30;;;;;;;33.84;29.05;65520.22;4873439;29;20278;-78
2022/08/19 12:18:50;;;;;;;9.07;4.78;;;;;;;33.44;28.57;65467.53;4868042;29;20272;-78
2022/08/19 12:21:20;;;;;;;4.78;4.30;;;;;;;33.68;28.46;65500.75;4874840;29;20224;-78
2022/08/19 12:23:49;;;;;;;6.78;4.47;;;;;;;33.24;28.34;65453.84;4875855;29;20203;-77
2022/08/19 12:26:18;;;;;;;5.45;4.95;;;;;;;32.92;28.58;65417.47;4874615;29;20223;-77
2022/08/19 12:28:45;;;;;;;5.60;4.40;;;;;;;33.18;28.34;65447.50;4875403;29;20275;-77
2022/08/19 12:31:13;;;;;;;4.82;4.43;;;;;;;33.44;28.27;65480.75;4877378;29;20231;-77
2022/08/19 12:33:41;;;;;;;4.80;4.40;;;;;;;33.62;27.84;65499.69;4870167;29;20218;-78
2022/08/19 12:36:11;;;;;;;4.03;3.72;;;;;;;33.44;28.39;65469.63;4876654;29;20305;-75
2022/08/19 12:38:40;;;;;;;7.15;4.80;;;;;;;33.39;28.57;65474.91;4874675;29;20271;-79
2022/08/19 12:41:10;;;;;;;6.78;5.10;;;;;;;33.78;27.88;65511.28;4865308;29;20232;-79
2022/08/19 12:43:37;;;;;;;5.18;4.72;;;;;;;33.76;28.40;65511.81;4874224;29;20267;-78
2022/08/19 12:46:05;;;;;;;4.82;4.50;;;;;;;33.68;28.36;65505.50;4867160;29;20235;-75
2022/08/19 12:48:35;;;;;;;5.13;4.63;;;;;;;33.01;28.50;65437.53;4874164;29;20303;-75
2022/08/19 12:51:06;;;;;;;5.93;5.18;;;;;;;32.94;28.81;65422.75;4875144;29;20251;-74
2022/08/19 12:53:33;;;;;;;5.60;5.10;;;;;;;33.18;29.14;65447.50;4868948;29;20201;-76
2022/08/19 12:56:00;;;;;;;4.82;4.43;;;;;;;33.61;28.48;65492.84;4873375;29;20219;-78
2022/08/19 12:58:28;;;;;;;5.90;5.07;;;;;;;33.40;28.80;65479.13;4874180;29;20215;-76
2022/08/19 13:00:55;;;;;;;5.00;4.25;;;;;;;33.34;28.08;65462.25;4874011;29;20219;-77
2022/08/19 13:03:28;;;;;;;4.88;4.65;;;;;;;33.43;29.03;65474.38;4875117;29;20227;-78
2022/08/19 13:05:57;;;;;;;5.10;4.43;;;;;;;33.99;27.96;65538.19;4873830;29;20231;-78
2022/08/19 13:08:24;;;;;;;5.68;4.97;;;;;;;34.12;27.20;65546.09;4886533;29;20235;-79
2022/08/19 13:10:51;;;;;;;5.30;4.63;;;;;;;34.60;26.47;65602.00;4884301;29;20254;-79
2022/08/19 13:13:18;;;;;;;6.13;5.53;;;;;;;34.77;26.48;65612.53;4874023;29;20300;-80
2022/08/19 13:15:45;;;;;;;8.43;4.88;;;;;;;34.91;26.06;65634.69;4876032;29;20392;-79
2022/08/19 13:18:15;;;;;;;5.57;5.18;;;;;;;35.05;27.63;65646.84;4873571;29;20215;-78
2022/08/19 13:20:43;;;;;;;5.10;4.28;;;;;;;34.84;27.08;65627.81;4871998;29;20227;-81
2022/08/19 13:23:11;;;;;;;5.60;5.20;;;;;;;34.80;26.93;65615.69;4874957;29;20512;-78
2022/08/19 13:25:38;;;;;;;5.25;4.70;;;;;;;35.19;25.94;65653.66;4874745;29;20227;-78
2022/08/19 13:28:06;;;;;;;5.00;4.70;;;;;;;35.40;26.24;65683.25;4874113;29;20247;-78
2022/08/19 13:33:19;;;;;;;5.35;4.95;;;;;;;36.46;24.88;65794.63;4874227;29;20247;-78
2022/08/19 13:35:49;;;;;;;5.57;5.07;;;;;;;36.78;24.22;65828.41;4868433;29;20319;-78
2022/08/19 13:38:20;;;;;;;5.63;5.05;;;;;;;36.76;24.61;65824.19;4856876;29;20206;-78
2022/08/19 13:40:49;;;;;;;4.63;4.32;;;;;;;36.24;24.56;65769.28;4862426;29;20310;-78
2022/08/19 13:43:17;;;;;;;4.88;4.65;;;;;;;36.11;24.11;65758.19;4870951;29;20212;-78
2022/08/19 13:45:44;;;;;;;5.82;4.60;;;;;;;36.04;25.09;65748.16;4872382;29;20244;-76
2022/08/19 13:48:12;;;;;;;4.93;4.63;;;;;;;36.03;25.75;65752.41;4874862;29;20287;-79
2022/08/19 13:50:41;;;;;;;5.18;4.70;;;;;;;36.40;24.63;65783.00;4874328;29;20235;-77